createdAt,value
2018-12-10T00:03:02.678Z,4.10
2018-12-10T00:05:32.541Z,4.10
2018-12-10T00:08:02.747Z,4.10
2018-12-10T00:10:32.610Z,4.10
2018-12-10T00:13:05.256Z,4.00
2018-12-10T00:15:35.519Z,4.00
2018-12-10T00:18:05.671Z,4.00
2018-12-10T00:20:35.455Z,4.00
2018-12-10T00:23:05.271Z,4.00
2018-12-10T00:25:35.407Z,3.90
2018-12-10T00:28:05.495Z,4.00
2018-12-10T00:30:35.584Z,3.90
2018-12-10T00:33:05.259Z,3.90
2018-12-10T00:44:43.068Z,3.90
2018-12-10T00:47:13.966Z,3.80
2018-12-10T00:49:43.931Z,3.90
2018-12-10T00:52:14.072Z,3.90
2018-12-10T00:54:43.734Z,3.80
2018-12-10T00:57:13.666Z,3.80
2018-12-10T00:59:43.407Z,3.80
2018-12-10T01:02:13.517Z,3.80
2018-12-10T01:07:44.615Z,3.80
2018-12-10T01:10:12.974Z,3.80
2018-12-10T01:12:40.512Z,3.70
2018-12-10T01:18:13.482Z,3.70
2018-12-10T01:20:46.271Z,3.70
2018-12-10T01:23:16.710Z,3.70
2018-12-10T01:25:46.455Z,3.70
2018-12-10T01:31:19.195Z,3.70
2018-12-10T01:33:48.949Z,3.70
2018-12-10T01:36:18.882Z,3.70
2018-12-10T01:38:47.787Z,3.60
2018-12-10T01:41:24.337Z,3.60
2018-12-10T01:43:54.319Z,3.60
2018-12-10T01:46:24.573Z,3.50
2018-12-10T01:48:54.660Z,3.50
2018-12-10T01:51:24.546Z,3.40
2018-12-10T01:53:54.640Z,3.40
2018-12-10T01:56:24.555Z,3.30
2018-12-10T01:58:54.627Z,3.30
2018-12-10T02:01:27.318Z,3.30
2018-12-10T02:03:57.476Z,3.30
2018-12-10T02:06:27.422Z,3.30
2018-12-10T02:08:57.291Z,3.30
2018-12-10T02:11:27.139Z,3.20
2018-12-10T02:13:56.811Z,3.20
2018-12-10T02:16:26.735Z,3.20
2018-12-10T02:18:56.347Z,3.20
2018-12-10T02:21:26.245Z,3.20
2018-12-10T02:23:54.184Z,3.20
2018-12-10T02:26:24.181Z,3.10
2018-12-10T02:28:57.785Z,3.10
2018-12-10T02:31:27.938Z,3.10
2018-12-10T02:33:58.788Z,3.00
2018-12-10T02:36:28.762Z,3.00
2018-12-10T02:38:59.126Z,2.90
2018-12-10T02:41:29.079Z,2.90
2018-12-10T02:43:57.070Z,2.90
2018-12-10T02:46:27.143Z,2.90
2018-12-10T02:48:57.305Z,2.80
2018-12-10T02:51:27.494Z,2.80
2018-12-10T02:53:57.602Z,2.80
2018-12-10T02:56:27.523Z,2.70
2018-12-10T02:58:57.381Z,2.70
2018-12-10T03:01:27.550Z,2.70
2018-12-10T03:07:00.891Z,2.60
2018-12-10T03:09:30.790Z,2.60
2018-12-10T03:11:59.058Z,2.60
2018-12-10T03:14:28.942Z,2.60
2018-12-10T03:16:58.840Z,2.60
2018-12-10T03:19:28.853Z,2.60
2018-12-10T03:21:56.767Z,2.60
2018-12-10T03:24:26.799Z,2.60
2018-12-10T03:26:56.873Z,2.60
2018-12-10T03:29:24.981Z,2.60
2018-12-10T03:34:58.665Z,2.60
2018-12-10T03:37:28.540Z,2.50
2018-12-10T03:39:58.372Z,2.50
2018-12-10T03:42:30.395Z,2.50
2018-12-10T03:45:01.483Z,2.50
2018-12-10T03:47:34.286Z,2.50
2018-12-10T03:50:03.831Z,2.50
2018-12-10T03:52:33.312Z,2.50
2018-12-10T03:58:06.462Z,2.60
2018-12-10T04:00:36.298Z,2.70
2018-12-10T04:06:09.342Z,2.70
2018-12-10T04:08:41.818Z,2.80
2018-12-10T04:11:11.997Z,2.80
2018-12-10T04:13:42.214Z,2.90
2018-12-10T04:16:12.518Z,2.90
2018-12-10T04:18:42.601Z,2.90
2018-12-10T04:21:15.138Z,2.90
2018-12-10T04:23:42.992Z,2.90
2018-12-10T04:26:12.758Z,2.90
2018-12-10T04:31:45.633Z,2.90
2018-12-10T04:34:18.354Z,2.90
2018-12-10T04:36:46.395Z,2.90
2018-12-10T04:39:16.238Z,2.90
2018-12-10T04:41:46.100Z,2.90
2018-12-10T04:44:17.049Z,2.90
2018-12-10T04:46:46.932Z,2.90
2018-12-10T04:52:20.024Z,2.80
2018-12-10T04:54:49.762Z,2.80
2018-12-10T04:57:19.688Z,2.80
2018-12-10T04:59:52.810Z,2.80
2018-12-10T05:05:24.492Z,2.80
2018-12-10T05:07:54.603Z,2.80
2018-12-10T05:18:24.866Z,2.80
2018-12-10T05:20:58.232Z,2.80
2018-12-10T05:23:27.939Z,2.80
2018-12-10T05:25:57.633Z,2.80
2018-12-10T05:28:27.534Z,2.80
2018-12-10T05:30:57.609Z,2.80
2018-12-10T05:33:27.458Z,2.80
2018-12-10T05:35:57.309Z,2.80
2018-12-10T05:38:28.135Z,2.80
2018-12-10T05:40:56.289Z,2.80
2018-12-10T05:43:26.170Z,2.80
2018-12-10T05:45:56.186Z,2.80
2018-12-10T05:48:26.402Z,2.80
2018-12-10T05:50:56.222Z,2.80
2018-12-10T05:53:26.389Z,2.80
2018-12-10T05:55:56.509Z,2.80
2018-12-10T05:58:26.335Z,2.80
2018-12-10T06:00:56.389Z,2.80
2018-12-10T06:03:26.443Z,2.80
2018-12-10T06:05:56.497Z,2.80
2018-12-10T06:11:32.730Z,2.80
2018-12-10T06:14:00.945Z,2.80
2018-12-10T06:16:29.096Z,2.70
2018-12-10T06:21:27.773Z,2.70
2018-12-10T06:24:00.636Z,2.70
2018-12-10T06:26:30.602Z,2.60
2018-12-10T06:29:00.674Z,2.70
2018-12-10T06:34:36.489Z,2.70
2018-12-10T06:37:06.571Z,2.70
2018-12-10T06:39:36.406Z,2.60
2018-12-10T06:42:08.333Z,2.70
2018-12-10T06:44:39.214Z,2.60
2018-12-10T06:47:09.174Z,2.60
2018-12-10T06:49:39.157Z,2.60
2018-12-10T06:55:12.093Z,2.50
2018-12-10T06:57:41.789Z,2.50
2018-12-10T07:00:11.658Z,2.50
2018-12-10T07:02:47.118Z,2.50
2018-12-10T07:05:27.174Z,2.40
2018-12-10T07:07:57.091Z,2.40
2018-12-10T07:10:26.977Z,2.40
2018-12-10T07:12:57.326Z,2.40
2018-12-10T07:15:27.330Z,2.40
2018-12-10T07:17:58.324Z,2.40
2018-12-10T07:20:28.358Z,2.40
2018-12-10T07:22:58.482Z,2.40
2018-12-10T07:25:28.530Z,2.40
2018-12-10T07:27:58.558Z,2.40
2018-12-10T07:30:26.433Z,2.50
2018-12-10T07:32:56.350Z,2.40
2018-12-10T07:35:26.447Z,2.50
2018-12-10T07:37:56.384Z,2.50
2018-12-10T07:43:29.529Z,2.50
2018-12-10T07:45:59.572Z,2.50
2018-12-10T07:48:27.256Z,2.50
2018-12-10T07:50:55.953Z,2.50
2018-12-10T07:53:25.711Z,2.50
2018-12-10T07:55:55.176Z,2.50
2018-12-10T07:58:25.061Z,2.50
2018-12-10T08:00:54.930Z,2.50
2018-12-10T08:03:24.578Z,2.50
2018-12-10T08:05:54.214Z,2.50
2018-12-10T08:08:26.849Z,2.50
2018-12-10T08:10:56.724Z,2.50
2018-12-10T08:13:26.334Z,2.50
2018-12-10T08:15:56.326Z,2.40
2018-12-10T08:18:28.726Z,2.40
2018-12-10T08:21:02.397Z,2.50
2018-12-10T08:25:59.656Z,2.70
2018-12-10T08:28:29.531Z,2.80
2018-12-10T08:31:03.482Z,2.80
2018-12-10T08:33:33.549Z,2.80
2018-12-10T08:36:03.399Z,2.90
2018-12-10T08:38:32.919Z,2.90
2018-12-10T08:41:02.785Z,2.90
2018-12-10T08:43:32.335Z,2.90
2018-12-10T08:46:04.693Z,2.90
2018-12-10T08:48:35.504Z,2.90
2018-12-10T08:51:05.219Z,2.80
2018-12-10T08:53:35.822Z,2.80
2018-12-10T08:56:09.198Z,2.80
2018-12-10T08:58:38.946Z,2.80
2018-12-10T09:01:08.542Z,2.80
2018-12-10T09:03:38.149Z,2.80
2018-12-10T09:06:07.918Z,2.80
2018-12-10T09:08:37.414Z,2.80
2018-12-10T09:11:05.249Z,2.80
2018-12-10T09:13:34.784Z,2.80
2018-12-10T09:16:04.405Z,2.80
2018-12-10T09:18:34.017Z,2.90
2018-12-10T09:21:03.572Z,2.90
2018-12-10T09:23:33.291Z,2.90
2018-12-10T09:26:03.166Z,2.90
2018-12-10T09:31:01.009Z,3.00
2018-12-10T09:33:30.809Z,3.00
2018-12-10T09:36:00.434Z,3.00
2018-12-10T09:38:28.233Z,3.00
2018-12-10T09:40:57.844Z,2.90
2018-12-10T09:43:28.149Z,2.90
2018-12-10T09:45:57.971Z,2.90
2018-12-10T09:48:27.629Z,2.80
2018-12-10T09:50:57.231Z,2.80
2018-12-10T09:53:29.885Z,2.90
2018-12-10T09:55:59.587Z,2.90
2018-12-10T09:58:29.378Z,2.90
2018-12-10T10:00:58.790Z,2.90
2018-12-10T10:03:28.307Z,3.00
2018-12-10T10:05:58.852Z,3.00
2018-12-10T10:08:28.706Z,2.90
2018-12-10T10:10:58.154Z,3.00
2018-12-10T10:13:27.694Z,3.00
2018-12-10T10:15:57.314Z,2.90
2018-12-10T10:18:26.968Z,3.00
2018-12-10T10:20:56.629Z,3.00
2018-12-10T10:23:26.323Z,3.00
2018-12-10T10:25:54.265Z,3.00
2018-12-10T10:28:23.910Z,3.00
2018-12-10T10:30:53.693Z,3.00
2018-12-10T10:33:23.562Z,3.00
2018-12-10T10:35:55.995Z,3.00
2018-12-10T10:38:25.664Z,3.00
2018-12-10T10:40:55.315Z,3.00
2018-12-10T10:43:25.063Z,3.00
2018-12-10T10:45:54.915Z,3.00
2018-12-10T10:48:25.200Z,2.90
2018-12-10T10:50:55.701Z,2.90
2018-12-10T10:53:25.153Z,2.90
2018-12-10T10:55:54.827Z,2.90
2018-12-10T10:58:24.223Z,2.90
2018-12-10T11:00:59.988Z,2.90
2018-12-10T11:03:35.960Z,2.90
2018-12-10T11:06:06.296Z,2.90
2018-12-10T11:08:36.534Z,3.00
2018-12-10T11:11:06.237Z,3.10
2018-12-10T11:13:35.719Z,3.40
2018-12-10T11:16:05.335Z,3.60
2018-12-10T11:18:34.908Z,3.80
2018-12-10T11:21:04.597Z,4.10
2018-12-10T11:23:34.318Z,4.30
2018-12-10T11:26:03.952Z,4.40
2018-12-10T11:28:36.522Z,4.70
2018-12-10T11:31:06.266Z,5.20
2018-12-10T11:33:36.113Z,5.50
2018-12-10T11:36:05.719Z,5.80
2018-12-10T11:38:35.473Z,6.30
2018-12-10T11:41:05.343Z,6.60
2018-12-10T11:43:35.125Z,7.00
2018-12-10T11:46:05.555Z,7.10
2018-12-10T11:48:35.458Z,6.90
2018-12-10T11:51:08.014Z,6.90
2018-12-10T11:53:35.522Z,6.90
2018-12-10T11:56:05.222Z,6.90
2018-12-10T11:58:34.745Z,6.90
2018-12-10T12:01:07.406Z,7.00
2018-12-10T12:03:37.340Z,7.20
2018-12-10T12:06:06.944Z,7.00
2018-12-10T12:08:36.670Z,6.90
2018-12-10T12:11:06.057Z,6.70
2018-12-10T12:13:35.930Z,6.50
2018-12-10T12:16:05.697Z,6.20
2018-12-10T12:18:38.074Z,6.40
2018-12-10T12:21:10.562Z,6.70
2018-12-10T12:23:40.490Z,7.00
2018-12-10T12:26:10.093Z,7.20
2018-12-10T12:28:40.014Z,7.10
2018-12-10T12:31:09.645Z,7.10
2018-12-10T12:33:42.009Z,7.00
2018-12-10T12:36:12.086Z,6.80
2018-12-10T12:38:41.705Z,6.50
2018-12-10T12:41:12.095Z,6.40
2018-12-10T12:43:42.030Z,6.00
2018-12-10T12:46:09.939Z,5.80
2018-12-10T12:48:42.541Z,5.50
2018-12-10T12:51:16.009Z,5.20
2018-12-10T12:53:45.970Z,4.90
2018-12-10T12:56:19.716Z,4.50
2018-12-10T12:58:49.387Z,4.10
2018-12-10T13:01:19.186Z,3.80
2018-12-10T13:03:48.817Z,3.50
2018-12-10T13:06:18.512Z,3.30
2018-12-10T13:08:50.953Z,3.20
2018-12-10T13:11:20.846Z,3.10
2018-12-10T13:13:50.318Z,3.00
2018-12-10T13:16:19.917Z,2.90
2018-12-10T13:18:52.374Z,2.90
2018-12-10T13:21:22.118Z,2.80
2018-12-10T13:23:51.725Z,2.70
2018-12-10T13:26:19.320Z,2.60
2018-12-10T13:28:49.063Z,2.50
2018-12-10T13:31:18.757Z,2.50
2018-12-10T13:33:48.331Z,2.40
2018-12-10T13:36:17.853Z,2.40
2018-12-10T13:38:48.305Z,2.40
2018-12-10T13:41:18.018Z,2.40
2018-12-10T13:43:48.589Z,2.40
2018-12-10T13:46:19.033Z,2.40
2018-12-10T13:48:48.450Z,2.40
2018-12-10T13:51:18.037Z,2.40
2018-12-10T13:53:47.527Z,2.40
2018-12-10T13:56:17.194Z,2.40
2018-12-10T13:58:47.012Z,2.40
2018-12-10T14:01:16.591Z,2.40
2018-12-10T14:03:46.714Z,2.50
2018-12-10T14:06:14.803Z,2.50
2018-12-10T14:08:44.849Z,2.50
2018-12-10T14:11:17.331Z,2.60
2018-12-10T14:13:47.097Z,2.60
2018-12-10T14:16:16.990Z,2.60
2018-12-10T14:18:45.064Z,2.60
2018-12-10T14:21:17.603Z,2.60
2018-12-10T14:23:47.389Z,2.60
2018-12-10T14:26:17.027Z,2.60
2018-12-10T14:28:47.043Z,2.60
2018-12-10T14:31:17.306Z,2.70
2018-12-10T14:33:47.070Z,2.80
2018-12-10T14:36:17.494Z,2.80
2018-12-10T14:38:47.106Z,2.90
2018-12-10T14:41:16.754Z,2.90
2018-12-10T14:51:13.941Z,2.90
2018-12-10T14:53:43.477Z,2.90
2018-12-10T14:56:12.966Z,3.00
2018-12-10T14:58:42.517Z,3.00
2018-12-10T15:01:12.266Z,3.00
2018-12-10T15:03:42.794Z,3.00
2018-12-10T15:09:30.075Z,3.00
2018-12-10T15:11:59.610Z,3.00
2018-12-10T15:14:29.370Z,3.00
2018-12-10T15:16:59.286Z,3.00
2018-12-10T15:19:28.814Z,2.90
2018-12-10T15:21:58.569Z,2.90
2018-12-10T15:24:28.361Z,2.90
2018-12-10T15:26:58.007Z,2.90
2018-12-10T15:29:27.761Z,2.80
2018-12-10T15:31:57.430Z,2.80
2018-12-10T15:34:25.940Z,2.70
2018-12-10T15:36:55.655Z,2.70
2018-12-10T15:39:25.312Z,2.70
2018-12-10T15:41:55.031Z,2.60
2018-12-10T15:44:27.513Z,2.60
2018-12-10T15:46:55.361Z,2.60
2018-12-10T15:49:25.224Z,2.60
2018-12-10T15:51:54.900Z,2.60
2018-12-10T16:01:48.321Z,2.50
2018-12-10T16:04:18.030Z,2.50
2018-12-10T16:06:47.837Z,2.50
2018-12-10T16:09:17.357Z,2.50
2018-12-10T16:11:49.708Z,2.50
2018-12-10T16:14:19.621Z,2.50
2018-12-10T16:16:51.070Z,2.50
2018-12-10T16:19:20.499Z,2.40
2018-12-10T16:21:50.179Z,2.40
2018-12-10T16:24:22.457Z,2.40
2018-12-10T16:26:52.309Z,2.40
2018-12-10T16:29:25.797Z,2.40
2018-12-10T16:31:55.722Z,2.40
2018-12-10T16:34:23.434Z,2.40
2018-12-10T16:36:53.331Z,2.40
2018-12-10T16:39:22.920Z,2.30
2018-12-10T16:41:52.532Z,2.30
2018-12-10T16:44:20.209Z,2.30
2018-12-10T16:46:49.973Z,2.40
2018-12-10T16:49:19.851Z,2.40
2018-12-10T16:51:50.376Z,2.40
2018-12-10T16:54:21.041Z,2.40
2018-12-10T16:56:51.601Z,2.40
2018-12-10T16:59:21.877Z,2.40
2018-12-10T17:01:52.323Z,2.40
2018-12-10T17:06:54.865Z,2.30
2018-12-10T17:09:25.518Z,2.30
2018-12-10T17:11:56.117Z,2.30
2018-12-10T17:14:26.415Z,2.30
2018-12-10T17:16:59.442Z,2.30
2018-12-10T17:19:29.262Z,2.30
2018-12-10T17:22:01.860Z,2.30
2018-12-10T17:24:30.547Z,2.30
2018-12-10T17:27:00.132Z,2.30
2018-12-10T17:29:29.923Z,2.30
2018-12-10T17:31:59.545Z,2.30
2018-12-10T17:34:29.269Z,2.40
2018-12-10T17:36:56.978Z,2.40
2018-12-10T17:39:27.245Z,2.40
2018-12-10T17:41:57.161Z,2.40
2018-12-10T17:44:27.590Z,2.40
2018-12-10T17:47:00.163Z,2.40
2018-12-10T17:49:30.347Z,2.50
2018-12-10T17:51:59.813Z,2.50
2018-12-10T17:54:29.623Z,2.50
2018-12-10T17:57:00.962Z,2.50
2018-12-10T17:59:30.864Z,2.50
2018-12-10T18:02:00.357Z,2.50
2018-12-10T18:04:30.178Z,2.50
2018-12-10T18:07:02.998Z,2.50
2018-12-10T18:16:59.037Z,2.40
2018-12-10T18:19:30.144Z,2.40
2018-12-10T18:22:00.306Z,2.40
2018-12-10T18:24:29.715Z,2.30
2018-12-10T18:26:59.510Z,2.30
2018-12-10T18:29:29.265Z,2.30
2018-12-10T18:31:58.807Z,2.30
2018-12-10T18:34:28.414Z,2.30
2018-12-10T18:36:58.305Z,2.30
2018-12-10T18:39:31.589Z,2.20
2018-12-10T18:42:01.459Z,2.10
2018-12-10T18:44:30.881Z,1.90
2018-12-10T18:47:00.630Z,1.70
2018-12-10T18:49:30.230Z,1.60
2018-12-10T18:52:00.187Z,1.50
2018-12-10T18:54:29.757Z,1.30
2018-12-10T18:56:59.413Z,1.30
2018-12-10T18:59:29.106Z,1.20
2018-12-10T19:01:59.130Z,1.10
2018-12-10T19:04:28.757Z,1.00
2018-12-10T19:07:00.057Z,1.00
2018-12-10T19:09:29.799Z,1.00
2018-12-10T19:11:59.673Z,0.90
2018-12-10T19:14:30.030Z,0.90
2018-12-10T19:16:59.558Z,0.90
2018-12-10T19:21:58.128Z,0.80
2018-12-10T19:24:27.891Z,0.80
2018-12-10T19:26:57.509Z,0.80
2018-12-10T19:29:27.272Z,0.80
2018-12-10T19:31:59.798Z,0.80
2018-12-10T19:34:29.524Z,0.70
2018-12-10T19:36:59.271Z,0.70
2018-12-10T19:39:28.775Z,0.70
2018-12-10T19:42:01.260Z,0.70
2018-12-10T19:44:34.769Z,0.70
2018-12-10T19:47:04.450Z,0.70
2018-12-10T19:49:32.119Z,0.70
2018-12-10T19:51:59.537Z,0.70
2018-12-10T19:54:29.195Z,0.70
2018-12-10T19:56:58.822Z,0.70
2018-12-10T19:59:28.943Z,0.70
2018-12-10T20:01:56.783Z,0.60
2018-12-10T20:04:24.261Z,0.60
2018-12-10T20:07:00.202Z,0.60
2018-12-10T20:09:30.733Z,0.60
2018-12-10T20:12:00.323Z,0.60
2018-12-10T20:14:30.077Z,0.60
2018-12-10T20:17:02.633Z,0.50
2018-12-10T20:19:30.190Z,0.50
2018-12-10T20:22:01.272Z,0.50
2018-12-10T20:24:34.490Z,0.50
2018-12-10T20:27:04.043Z,0.50
2018-12-10T20:29:33.753Z,0.40
2018-12-10T20:32:01.615Z,0.50
2018-12-10T20:34:52.031Z,0.40
2018-12-10T20:37:24.760Z,0.50
2018-12-10T20:39:57.763Z,0.50
2018-12-10T20:42:28.656Z,0.50
2018-12-10T20:44:57.976Z,0.50
2018-12-10T20:47:27.784Z,0.50
2018-12-10T20:50:00.255Z,0.50
2018-12-10T20:52:28.174Z,0.60
2018-12-10T20:54:58.025Z,0.60
2018-12-10T20:57:27.893Z,0.60
2018-12-10T20:59:57.464Z,0.60
2018-12-10T21:02:29.191Z,0.60
2018-12-10T21:04:59.588Z,0.60
2018-12-10T21:07:29.230Z,0.60
2018-12-10T21:09:59.193Z,0.50
2018-12-10T21:12:28.871Z,0.50
2018-12-10T21:15:00.575Z,0.50
2018-12-10T21:17:31.343Z,0.50
2018-12-10T21:20:01.077Z,0.50
2018-12-10T21:22:30.987Z,0.50
2018-12-10T21:25:01.526Z,0.60
2018-12-10T21:27:34.021Z,0.50
2018-12-10T21:30:06.191Z,0.60
2018-12-10T21:32:36.650Z,0.60
2018-12-10T21:35:07.053Z,0.60
2018-12-10T21:37:37.712Z,0.60
2018-12-10T21:40:07.941Z,0.60
2018-12-10T21:42:38.974Z,0.60
2018-12-10T21:45:09.081Z,0.60
2018-12-10T21:47:39.984Z,0.60
2018-12-10T21:50:12.593Z,0.60
2018-12-10T21:52:42.499Z,0.60
2018-12-10T21:55:16.848Z,0.60
2018-12-10T21:57:43.848Z,0.60
2018-12-10T22:00:13.619Z,0.50
2018-12-10T22:02:43.170Z,0.60
2018-12-10T22:05:13.061Z,0.50
2018-12-10T22:07:45.469Z,0.50
2018-12-10T22:10:13.511Z,0.40
2018-12-10T22:12:43.298Z,0.40
2018-12-10T22:15:13.055Z,0.40
2018-12-10T22:17:40.636Z,0.40
2018-12-10T22:20:10.449Z,0.40
2018-12-10T22:22:40.008Z,0.40
2018-12-10T22:25:09.801Z,0.40
2018-12-10T22:27:39.328Z,0.30
2018-12-10T22:30:09.054Z,0.30
2018-12-10T22:32:38.601Z,0.30
2018-12-10T22:35:08.197Z,0.30
2018-12-10T22:37:35.798Z,0.30
2018-12-10T22:40:04.253Z,0.30
2018-12-10T22:42:34.225Z,0.40
2018-12-10T22:45:04.684Z,0.40
2018-12-10T22:47:32.797Z,0.40
2018-12-10T22:50:00.373Z,0.40
2018-12-10T22:52:30.211Z,0.40
2018-12-10T22:55:00.021Z,0.50
2018-12-10T22:57:29.712Z,0.50
2018-12-10T22:59:59.293Z,0.50
2018-12-10T23:02:28.788Z,0.50
2018-12-10T23:04:58.440Z,0.50
2018-12-10T23:07:29.226Z,0.50
2018-12-10T23:09:58.902Z,0.50
2018-12-10T23:12:31.367Z,0.50
2018-12-10T23:15:01.167Z,0.50
2018-12-10T23:17:30.923Z,0.50
2018-12-10T23:20:00.641Z,0.60
2018-12-10T23:22:32.973Z,0.50
2018-12-10T23:25:02.983Z,0.50
2018-12-10T23:27:30.547Z,0.50
2018-12-10T23:32:31.974Z,0.50
2018-12-10T23:35:01.630Z,0.50
2018-12-10T23:37:31.273Z,0.60
2018-12-10T23:40:00.917Z,0.50
2018-12-10T23:42:30.378Z,0.50
2018-12-10T23:44:59.943Z,0.50
2018-12-10T23:47:29.572Z,0.60
2018-12-10T23:49:59.373Z,0.60
2018-12-10T23:52:29.085Z,0.50
2018-12-10T23:54:58.633Z,0.50
2018-12-10T23:57:31.346Z,0.60
